createdAt,value
2017-09-20T00:00:09.603Z,28.98
2017-09-20T00:00:43.329Z,34.50
2017-09-20T00:01:17.042Z,28.83
2017-09-20T00:01:51.529Z,27.23
2017-09-20T00:02:25.287Z,27.73
2017-09-20T00:02:58.666Z,26.73
2017-09-20T00:03:32.385Z,29.08
2017-09-20T00:04:06.108Z,27.37
2017-09-20T00:04:40.949Z,27.60
2017-09-20T00:05:14.684Z,30.35
2017-09-20T00:05:48.403Z,30.40
2017-09-20T00:06:22.911Z,30.12
2017-09-20T00:06:57.427Z,32.72
2017-09-20T00:07:31.916Z,33.65
2017-09-20T00:08:05.628Z,28.98
2017-09-20T00:08:40.118Z,28.25
2017-09-20T00:09:13.832Z,29.25
2017-09-20T00:09:47.941Z,32.03
2017-09-20T00:10:21.703Z,28.42
2017-09-20T00:10:56.177Z,30.88
2017-09-20T00:11:29.908Z,31.15
2017-09-20T00:12:04.380Z,31.58
2017-09-20T00:12:38.105Z,30.98
2017-09-20T00:13:12.601Z,31.70
2017-09-20T00:13:46.312Z,33.40
2017-09-20T00:14:20.814Z,29.77
2017-09-20T00:14:55.663Z,29.85
2017-09-20T00:15:29.389Z,29.05
2017-09-20T00:16:03.109Z,29.67
2017-09-20T00:16:37.584Z,32.50
2017-09-20T00:17:11.301Z,34.00
2017-09-20T00:17:45.025Z,28.58
2017-09-20T00:18:18.756Z,32.05
2017-09-20T00:18:52.465Z,32.03
2017-09-20T00:19:26.193Z,35.70
2017-09-20T00:20:00.215Z,35.35
2017-09-20T00:20:33.933Z,31.60
2017-09-20T00:21:07.652Z,34.35
2017-09-20T00:21:42.135Z,33.95
2017-09-20T00:22:15.860Z,30.92
2017-09-20T00:22:50.363Z,33.35
2017-09-20T00:23:24.840Z,34.55
2017-09-20T00:23:58.572Z,30.23
2017-09-20T00:24:33.058Z,33.95
2017-09-20T00:25:07.095Z,35.15
2017-09-20T00:25:40.818Z,31.55
2017-09-20T00:26:14.536Z,33.33
2017-09-20T00:26:48.245Z,33.42
2017-09-20T00:27:22.753Z,34.00
2017-09-20T00:27:57.262Z,34.28
2017-09-20T00:28:31.758Z,33.38
2017-09-20T00:29:05.479Z,30.35
2017-09-20T00:29:39.197Z,32.72
2017-09-20T00:30:12.885Z,35.35
2017-09-20T00:30:46.592Z,32.70
2017-09-20T00:31:19.982Z,33.45
2017-09-20T00:31:53.701Z,34.22
2017-09-20T00:32:28.180Z,38.60
2017-09-20T00:33:01.888Z,33.13
2017-09-20T00:33:35.609Z,32.75
2017-09-20T00:34:09.388Z,36.47
2017-09-20T00:34:43.868Z,30.58
2017-09-20T00:35:17.909Z,37.33
2017-09-20T00:35:51.617Z,33.03
2017-09-20T00:36:25.330Z,34.15
2017-09-20T00:36:58.713Z,34.95
2017-09-20T00:37:32.438Z,34.50
2017-09-20T00:38:06.923Z,31.25
2017-09-20T00:38:40.289Z,31.98
2017-09-20T00:39:13.666Z,32.53
2017-09-20T00:39:47.403Z,34.65
2017-09-20T00:40:22.241Z,32.90
2017-09-20T00:40:55.774Z,31.33
2017-09-20T00:41:28.968Z,38.97
2017-09-20T00:42:02.688Z,35.92
2017-09-20T00:42:37.177Z,34.25
2017-09-20T00:43:10.742Z,37.40
2017-09-20T00:43:44.265Z,37.50
2017-09-20T00:44:18.760Z,34.08
2017-09-20T00:44:54.000Z,36.33
2017-09-20T00:45:28.627Z,34.72
2017-09-20T00:46:02.162Z,36.35
2017-09-20T00:46:35.535Z,38.03
2017-09-20T00:47:09.269Z,34.50
2017-09-20T00:47:43.404Z,34.72
2017-09-20T00:48:17.125Z,33.63
2017-09-20T00:48:50.849Z,34.72
2017-09-20T00:49:25.335Z,34.63
2017-09-20T00:49:59.050Z,32.22
2017-09-20T00:50:33.547Z,36.33
2017-09-20T00:51:07.360Z,31.95
2017-09-20T00:51:41.075Z,35.45
2017-09-20T00:52:14.798Z,40.30
2017-09-20T00:52:49.200Z,34.58
2017-09-20T00:53:22.925Z,31.60
2017-09-20T00:53:55.947Z,33.88
2017-09-20T00:54:29.304Z,32.55
2017-09-20T00:55:03.025Z,35.63
2017-09-20T00:55:36.469Z,31.48
2017-09-20T00:56:10.254Z,30.20
2017-09-20T00:56:44.044Z,34.10
2017-09-20T00:57:17.836Z,32.15
2017-09-20T00:57:51.630Z,36.47
2017-09-20T00:58:25.417Z,33.30
2017-09-20T00:58:58.449Z,32.88
2017-09-20T00:59:31.503Z,36.38
2017-09-20T01:00:05.225Z,31.17
2017-09-20T01:00:38.575Z,33.20
2017-09-20T01:01:11.595Z,34.60
2017-09-20T01:01:44.626Z,35.25
2017-09-20T01:02:17.648Z,33.85
2017-09-20T01:02:51.792Z,34.20
2017-09-20T01:03:25.156Z,35.80
2017-09-20T01:03:59.637Z,31.58
2017-09-20T01:04:33.783Z,33.13
2017-09-20T01:05:07.540Z,35.80
2017-09-20T01:05:42.391Z,33.50
2017-09-20T01:06:16.111Z,36.58
2017-09-20T01:06:49.828Z,32.00
2017-09-20T01:07:23.543Z,29.45
2017-09-20T01:07:58.029Z,31.35
2017-09-20T01:08:31.409Z,30.42
2017-09-20T01:09:04.433Z,32.53
2017-09-20T01:09:38.158Z,31.90
2017-09-20T01:10:11.535Z,30.35
2017-09-20T01:10:45.601Z,40.08
2017-09-20T01:11:18.976Z,38.25
2017-09-20T01:11:52.699Z,35.85
2017-09-20T01:12:26.417Z,29.05
2017-09-20T01:12:59.794Z,31.50
2017-09-20T01:13:34.303Z,33.13
2017-09-20T01:14:08.026Z,32.20
2017-09-20T01:14:42.507Z,32.55
2017-09-20T01:15:15.869Z,29.83
2017-09-20T01:15:49.219Z,29.45
2017-09-20T01:16:22.938Z,30.05
2017-09-20T01:16:56.693Z,30.45
2017-09-20T01:17:30.420Z,29.37
2017-09-20T01:18:03.787Z,30.10
2017-09-20T01:18:37.152Z,32.25
2017-09-20T01:19:10.417Z,32.50
2017-09-20T01:19:44.915Z,30.80
2017-09-20T01:20:29.656Z,28.08
2017-09-20T01:21:14.852Z,30.98
2017-09-20T01:21:59.834Z,31.37
2017-09-20T01:22:54.560Z,33.15
2017-09-20T01:24:21.281Z,32.70
2017-09-20T01:24:54.309Z,29.30
2017-09-20T01:25:27.338Z,29.85
2017-09-20T01:26:00.388Z,28.42
2017-09-20T01:26:33.735Z,30.73
2017-09-20T01:27:07.149Z,30.35
2017-09-20T01:27:40.204Z,29.77
2017-09-20T01:28:13.572Z,31.27
2017-09-20T01:28:46.955Z,32.63
2017-09-20T01:29:19.980Z,31.15
2017-09-20T01:29:53.349Z,28.05
2017-09-20T01:30:26.730Z,26.95
2017-09-20T01:31:00.445Z,30.58
2017-09-20T01:31:34.177Z,25.73
2017-09-20T01:32:07.593Z,28.45
2017-09-20T01:32:40.984Z,28.92
2017-09-20T01:33:14.729Z,30.50
2017-09-20T01:33:48.472Z,27.95
2017-09-20T01:34:21.847Z,31.35
2017-09-20T01:34:55.568Z,26.70
2017-09-20T01:35:29.283Z,27.73
2017-09-20T01:36:02.652Z,30.65
2017-09-20T01:36:37.078Z,29.20
2017-09-20T01:37:10.445Z,25.33
2017-09-20T01:37:44.601Z,33.55
2017-09-20T01:38:18.320Z,23.27
2017-09-20T01:38:51.694Z,29.70
2017-09-20T01:39:25.059Z,27.73
2017-09-20T01:39:58.773Z,32.25
2017-09-20T01:40:31.805Z,29.20
2017-09-20T01:41:05.528Z,27.52
2017-09-20T01:41:39.372Z,25.77
2017-09-20T01:42:13.094Z,28.92
2017-09-20T01:42:46.476Z,30.50
2017-09-20T01:43:20.199Z,24.80
2017-09-20T01:43:53.926Z,29.00
2017-09-20T01:44:27.657Z,29.15
2017-09-20T01:45:01.389Z,29.63
2017-09-20T01:45:35.897Z,24.05
2017-09-20T01:46:10.436Z,30.60
2017-09-20T01:46:44.521Z,27.13
2017-09-20T01:47:18.240Z,26.30
2017-09-20T01:47:51.969Z,27.25
2017-09-20T01:48:25.706Z,28.40
2017-09-20T01:48:59.429Z,25.88
2017-09-20T01:49:33.153Z,28.12
2017-09-20T01:50:07.649Z,24.55
2017-09-20T01:50:42.158Z,30.48
2017-09-20T01:51:16.660Z,24.42
2017-09-20T01:51:50.790Z,27.60
2017-09-20T01:52:25.295Z,26.37
2017-09-20T01:52:59.793Z,23.85
2017-09-20T01:53:33.518Z,27.65
2017-09-20T01:54:07.236Z,33.53
2017-09-20T01:54:40.953Z,29.00
2017-09-20T01:55:14.653Z,29.37
2017-09-20T01:55:48.361Z,27.35
2017-09-20T01:56:22.840Z,25.25
2017-09-20T01:56:56.876Z,28.42
2017-09-20T01:57:30.587Z,27.58
2017-09-20T01:58:04.314Z,27.92
2017-09-20T01:58:38.066Z,29.02
2017-09-20T01:59:11.802Z,27.40
2017-09-20T01:59:45.517Z,29.40
2017-09-20T02:00:19.666Z,32.35
2017-09-20T02:00:53.394Z,26.30
2017-09-20T02:01:27.889Z,26.80
2017-09-20T02:02:01.950Z,27.33
2017-09-20T02:02:35.665Z,26.42
2017-09-20T02:03:09.372Z,24.35
2017-09-20T02:03:43.094Z,25.73
2017-09-20T02:04:17.594Z,23.38
2017-09-20T02:04:52.080Z,26.33
2017-09-20T02:05:25.808Z,28.12
2017-09-20T02:05:59.560Z,24.35
2017-09-20T02:06:33.272Z,25.75
2017-09-20T02:07:08.109Z,23.87
2017-09-20T02:07:41.839Z,25.60
2017-09-20T02:08:15.566Z,29.00
2017-09-20T02:08:50.083Z,32.58
2017-09-20T02:09:24.564Z,28.83
2017-09-20T02:09:58.078Z,25.77
2017-09-20T02:10:32.553Z,24.12
2017-09-20T02:11:06.633Z,22.65
2017-09-20T02:11:40.385Z,24.45
2017-09-20T02:12:14.313Z,25.45
2017-09-20T02:12:48.031Z,26.67
2017-09-20T02:13:21.754Z,28.45
2017-09-20T02:13:56.059Z,28.05
2017-09-20T02:14:30.540Z,23.00
2017-09-20T02:15:04.325Z,26.62
2017-09-20T02:15:38.037Z,24.40
2017-09-20T02:16:11.784Z,30.37
2017-09-20T02:16:45.533Z,25.67
2017-09-20T02:17:20.349Z,24.30
2017-09-20T02:17:54.826Z,27.30
2017-09-20T02:18:28.542Z,24.58
2017-09-20T02:19:03.022Z,32.20
2017-09-20T02:19:36.744Z,25.12
2017-09-20T02:20:11.235Z,26.62
2017-09-20T02:20:44.970Z,27.08
2017-09-20T02:21:18.684Z,28.40
2017-09-20T02:21:52.401Z,27.67
2017-09-20T02:22:26.450Z,25.02
2017-09-20T02:23:00.164Z,26.20
2017-09-20T02:23:33.886Z,30.75
2017-09-20T02:24:07.598Z,26.95
2017-09-20T02:24:42.076Z,25.33
2017-09-20T02:25:15.798Z,25.02
2017-09-20T02:25:50.280Z,25.17
2017-09-20T02:26:23.989Z,26.23
2017-09-20T02:26:57.757Z,23.77
2017-09-20T02:27:31.829Z,25.42
2017-09-20T02:28:05.591Z,24.10
2017-09-20T02:28:40.069Z,26.45
2017-09-20T02:29:13.783Z,28.55
2017-09-20T02:29:48.265Z,24.30
2017-09-20T02:30:21.991Z,24.42
2017-09-20T02:30:55.699Z,27.02
2017-09-20T02:31:29.414Z,27.90
2017-09-20T02:32:03.136Z,28.25
2017-09-20T02:32:37.977Z,27.25
2017-09-20T02:33:11.512Z,29.37
2017-09-20T02:33:45.224Z,27.60
2017-09-20T02:34:18.931Z,25.67
2017-09-20T02:34:53.240Z,24.92
2017-09-20T02:35:27.373Z,26.12
2017-09-20T02:36:00.745Z,25.55
2017-09-20T02:36:34.133Z,26.33
2017-09-20T02:37:07.841Z,27.15
2017-09-20T02:37:41.189Z,27.00
2017-09-20T02:38:14.916Z,26.70
2017-09-20T02:38:48.333Z,27.50
2017-09-20T02:39:21.834Z,26.83
2017-09-20T02:39:55.974Z,32.80
2017-09-20T02:40:29.362Z,27.80
2017-09-20T02:41:03.085Z,32.05
2017-09-20T02:41:36.810Z,27.73
2017-09-20T02:42:10.950Z,26.42
2017-09-20T02:42:44.673Z,23.95
2017-09-20T02:43:18.396Z,28.90
2017-09-20T02:43:52.153Z,28.85
2017-09-20T02:44:25.903Z,30.75
2017-09-20T02:44:59.636Z,28.83
2017-09-20T02:45:33.018Z,30.77
2017-09-20T02:46:06.741Z,24.12
2017-09-20T02:46:40.510Z,24.77
2017-09-20T02:47:15.242Z,29.70
2017-09-20T02:47:49.757Z,26.50
2017-09-20T02:48:23.142Z,28.98
2017-09-20T02:48:56.525Z,29.33
2017-09-20T02:49:30.070Z,30.00
2017-09-20T02:50:03.430Z,25.60
2017-09-20T02:50:36.829Z,30.12
2017-09-20T02:51:10.551Z,30.37
2017-09-20T02:51:44.120Z,32.13
2017-09-20T02:52:17.830Z,28.33
2017-09-20T02:52:52.355Z,32.72
2017-09-20T02:53:26.097Z,25.83
2017-09-20T02:53:59.139Z,25.52
2017-09-20T02:54:32.873Z,29.77
2017-09-20T02:55:06.261Z,27.20
2017-09-20T02:55:40.236Z,26.90
2017-09-20T02:56:13.614Z,32.13
2017-09-20T02:56:47.349Z,25.95
2017-09-20T02:57:21.834Z,29.58
2017-09-20T02:57:55.870Z,32.45
2017-09-20T02:58:29.610Z,24.55
2017-09-20T02:59:03.336Z,27.02
2017-09-20T02:59:37.485Z,27.13
2017-09-20T03:00:10.545Z,29.70
2017-09-20T03:00:43.570Z,29.70
2017-09-20T03:01:16.628Z,28.40
2017-09-20T03:01:50.351Z,30.37
2017-09-20T03:02:24.554Z,37.10
2017-09-20T03:02:59.398Z,29.20
2017-09-20T03:03:33.130Z,25.15
2017-09-20T03:04:06.874Z,24.63
2017-09-20T03:04:39.911Z,30.08
2017-09-20T03:05:13.641Z,26.30
2017-09-20T03:05:47.371Z,26.48
2017-09-20T03:06:21.096Z,31.00
2017-09-20T03:06:55.610Z,29.25
2017-09-20T03:07:30.115Z,31.17
2017-09-20T03:08:04.940Z,32.10
2017-09-20T03:08:39.420Z,25.05
2017-09-20T03:09:13.130Z,26.75
2017-09-20T03:09:47.909Z,27.70
2017-09-20T03:10:21.639Z,23.83
2017-09-20T03:10:56.138Z,26.42
2017-09-20T03:11:29.867Z,25.85
2017-09-20T03:12:03.596Z,28.05
2017-09-20T03:12:37.319Z,31.37
2017-09-20T03:13:12.165Z,25.10
2017-09-20T03:13:45.889Z,24.25
2017-09-20T03:14:19.719Z,27.80
2017-09-20T03:14:54.198Z,27.58
2017-09-20T03:15:27.907Z,27.30
2017-09-20T03:16:01.633Z,31.83
2017-09-20T03:16:35.397Z,25.73
2017-09-20T03:17:09.876Z,25.80
2017-09-20T03:17:43.601Z,29.87
2017-09-20T03:18:18.434Z,28.77
2017-09-20T03:18:52.157Z,28.50
2017-09-20T03:19:25.886Z,26.25
2017-09-20T03:19:59.616Z,27.20
2017-09-20T03:20:33.164Z,26.80
2017-09-20T03:21:07.656Z,29.45
2017-09-20T03:21:41.376Z,28.10
2017-09-20T03:22:15.847Z,28.65
2017-09-20T03:22:49.576Z,32.58
2017-09-20T03:23:24.375Z,29.25
2017-09-20T03:23:58.110Z,32.60
2017-09-20T03:24:31.836Z,28.23
2017-09-20T03:25:05.573Z,28.80
2017-09-20T03:25:39.309Z,28.62
2017-09-20T03:26:13.025Z,27.90
2017-09-20T03:26:46.765Z,30.98
2017-09-20T03:27:20.472Z,36.22
2017-09-20T03:27:54.188Z,29.12
2017-09-20T03:28:27.910Z,28.15
2017-09-20T03:29:02.399Z,29.48
2017-09-20T03:29:36.132Z,28.87
2017-09-20T03:30:09.849Z,29.48
2017-09-20T03:30:43.588Z,27.85
2017-09-20T03:31:17.317Z,28.65
2017-09-20T03:31:51.041Z,27.75
2017-09-20T03:32:24.862Z,28.67
2017-09-20T03:32:59.345Z,29.08
2017-09-20T03:33:33.346Z,30.48
2017-09-20T03:34:07.089Z,27.75
2017-09-20T03:34:40.833Z,28.52
2017-09-20T03:35:14.564Z,27.73
2017-09-20T03:35:48.281Z,30.85
2017-09-20T03:36:22.001Z,31.87
2017-09-20T03:36:55.726Z,30.65
2017-09-20T03:37:30.206Z,27.30
2017-09-20T03:38:03.599Z,28.50
2017-09-20T03:38:38.429Z,29.37
2017-09-20T03:39:12.158Z,37.28
2017-09-20T03:39:45.894Z,32.08
2017-09-20T03:40:20.381Z,29.25
2017-09-20T03:40:54.094Z,29.37
2017-09-20T03:41:28.590Z,30.17
2017-09-20T03:42:03.085Z,32.58
2017-09-20T03:42:36.800Z,27.15
2017-09-20T03:43:11.294Z,34.63
2017-09-20T03:43:45.351Z,27.87
2017-09-20T03:44:19.064Z,32.33
2017-09-20T03:44:52.774Z,26.87
2017-09-20T03:45:26.499Z,31.90
2017-09-20T03:46:00.989Z,29.20
2017-09-20T03:46:34.705Z,26.45
2017-09-20T03:47:08.452Z,30.65
2017-09-20T03:47:42.163Z,27.25
2017-09-20T03:48:16.658Z,29.65
2017-09-20T03:48:50.703Z,30.02
2017-09-20T03:49:24.445Z,31.33
2017-09-20T03:49:58.156Z,31.73
2017-09-20T03:50:32.636Z,26.92
2017-09-20T03:51:06.347Z,31.98
2017-09-20T03:51:40.065Z,34.47
2017-09-20T03:52:13.781Z,29.20
2017-09-20T03:52:47.497Z,36.40
2017-09-20T03:53:21.216Z,30.70
2017-09-20T03:53:55.989Z,31.40
2017-09-20T03:54:29.709Z,25.77
2017-09-20T03:55:03.431Z,27.58
2017-09-20T03:55:37.150Z,23.83
2017-09-20T03:56:10.865Z,26.70
2017-09-20T03:56:44.599Z,28.62
2017-09-20T03:57:18.547Z,30.60
2017-09-20T03:57:52.259Z,29.35
2017-09-20T03:58:25.986Z,32.90
2017-09-20T03:59:00.103Z,27.80
2017-09-20T03:59:33.818Z,34.13
2017-09-20T04:00:07.529Z,29.63
2017-09-20T04:00:40.558Z,25.90
2017-09-20T04:01:14.277Z,23.92
2017-09-20T04:01:48.017Z,27.48
2017-09-20T04:02:21.765Z,28.95
2017-09-20T04:02:55.484Z,28.05
2017-09-20T04:03:29.967Z,22.13
2017-09-20T04:04:03.990Z,26.83
2017-09-20T04:04:38.480Z,23.08
2017-09-20T04:05:12.197Z,24.30
2017-09-20T04:05:46.688Z,23.25
2017-09-20T04:06:20.404Z,25.85
2017-09-20T04:06:54.889Z,27.08
2017-09-20T04:07:28.611Z,26.20
2017-09-20T04:08:02.345Z,28.05
2017-09-20T04:08:36.071Z,22.67
2017-09-20T04:09:10.901Z,28.48
2017-09-20T04:09:44.633Z,22.42
2017-09-20T04:10:18.357Z,25.30
2017-09-20T04:10:52.098Z,27.50
2017-09-20T04:11:25.827Z,22.77
2017-09-20T04:11:59.540Z,25.55
2017-09-20T04:12:33.092Z,22.98
2017-09-20T04:13:06.828Z,24.42
2017-09-20T04:13:41.313Z,26.00
2017-09-20T04:14:16.165Z,22.02
2017-09-20T04:14:49.894Z,24.45
2017-09-20T04:15:23.613Z,23.83
2017-09-20T04:15:58.119Z,23.85
2017-09-20T04:16:31.845Z,25.20
2017-09-20T04:17:05.576Z,21.90
2017-09-20T04:17:39.292Z,25.42
2017-09-20T04:18:13.029Z,21.08
2017-09-20T04:18:46.788Z,24.55
2017-09-20T04:19:21.589Z,20.17
2017-09-20T04:19:55.329Z,27.08
2017-09-20T04:20:29.048Z,25.15
2017-09-20T04:21:02.795Z,20.67
2017-09-20T04:21:36.526Z,25.00
2017-09-20T04:22:10.293Z,23.20
2017-09-20T04:22:44.054Z,22.25
2017-09-20T04:23:18.544Z,22.08
2017-09-20T04:23:52.261Z,25.05
2017-09-20T04:24:26.366Z,21.50
2017-09-20T04:25:00.103Z,19.17
2017-09-20T04:25:33.844Z,17.55
2017-09-20T04:26:07.589Z,22.40
2017-09-20T04:26:41.326Z,21.87
2017-09-20T04:27:15.059Z,22.20
2017-09-20T04:27:48.789Z,22.65
2017-09-20T04:28:22.509Z,24.05
2017-09-20T04:28:56.234Z,24.98
2017-09-20T04:29:30.302Z,23.00
2017-09-20T04:30:03.334Z,24.70
2017-09-20T04:30:37.070Z,20.92
2017-09-20T04:31:10.805Z,21.27
2017-09-20T04:31:44.521Z,21.45
2017-09-20T04:32:18.893Z,19.80
2017-09-20T04:32:52.641Z,20.73
2017-09-20T04:33:26.376Z,26.48
2017-09-20T04:34:00.125Z,20.80
2017-09-20T04:34:33.455Z,22.87
2017-09-20T04:35:07.240Z,26.30
2017-09-20T04:35:40.974Z,19.50
2017-09-20T04:36:14.706Z,21.33
2017-09-20T04:36:48.431Z,23.08
2017-09-20T04:37:22.170Z,22.77
2017-09-20T04:37:55.900Z,23.90
2017-09-20T04:38:29.675Z,24.90
2017-09-20T04:39:03.058Z,22.20
2017-09-20T04:39:37.155Z,18.45
2017-09-20T04:40:10.893Z,20.35
2017-09-20T04:40:45.406Z,20.88
2017-09-20T04:41:19.916Z,20.25
2017-09-20T04:41:53.646Z,19.92
2017-09-20T04:42:27.435Z,22.23
2017-09-20T04:43:01.188Z,19.45
2017-09-20T04:43:35.636Z,17.85
2017-09-20T04:44:09.391Z,20.55
2017-09-20T04:44:44.180Z,20.12
2017-09-20T04:45:17.924Z,19.02
2017-09-20T04:45:51.485Z,20.12
2017-09-20T04:46:26.011Z,21.75
2017-09-20T04:46:59.739Z,20.83
2017-09-20T04:47:33.493Z,18.55
2017-09-20T04:48:07.262Z,21.23
2017-09-20T04:48:41.828Z,21.12
2017-09-20T04:49:15.577Z,19.58
2017-09-20T04:49:49.630Z,21.60
2017-09-20T04:50:23.170Z,23.30
2017-09-20T04:50:56.556Z,19.42
2017-09-20T04:51:30.290Z,20.92
2017-09-20T04:52:04.016Z,23.73
2017-09-20T04:52:38.530Z,20.85
2017-09-20T04:53:12.269Z,21.55
2017-09-20T04:53:46.002Z,22.45
2017-09-20T04:54:20.513Z,19.70
2017-09-20T04:54:55.382Z,21.20
2017-09-20T04:55:29.127Z,26.20
2017-09-20T04:56:03.639Z,19.05
2017-09-20T04:56:38.158Z,18.08
2017-09-20T04:57:11.884Z,23.45
2017-09-20T04:57:45.625Z,20.48
2017-09-20T04:58:20.123Z,19.10
2017-09-20T04:58:54.642Z,17.37
2017-09-20T04:59:29.127Z,21.12
2017-09-20T05:00:03.185Z,16.70
2017-09-20T05:00:37.140Z,18.42
2017-09-20T05:01:11.651Z,18.12
2017-09-20T05:01:45.361Z,26.55
2017-09-20T05:02:19.085Z,19.70
2017-09-20T05:02:52.812Z,20.17
2017-09-20T05:03:26.542Z,19.40
2017-09-20T05:04:00.273Z,24.15
2017-09-20T05:04:33.997Z,19.05
2017-09-20T05:05:08.814Z,18.48
2017-09-20T05:05:44.860Z,25.80
2017-09-20T05:06:19.376Z,19.12
2017-09-20T05:06:53.873Z,20.00
2017-09-20T05:07:28.379Z,23.55
2017-09-20T05:08:02.870Z,18.87
2017-09-20T05:08:36.612Z,18.10
2017-09-20T05:09:10.346Z,22.58
2017-09-20T05:09:44.072Z,19.27
2017-09-20T05:10:18.929Z,18.65
2017-09-20T05:10:52.714Z,17.08
2017-09-20T05:11:26.470Z,20.02
2017-09-20T05:12:01.697Z,19.08
2017-09-20T05:12:36.233Z,19.58
2017-09-20T05:13:09.961Z,19.15
2017-09-20T05:13:43.796Z,20.00
2017-09-20T05:14:18.301Z,19.92
2017-09-20T05:14:52.809Z,21.62
2017-09-20T05:15:27.623Z,25.12
2017-09-20T05:16:02.101Z,27.65
2017-09-20T05:16:35.828Z,19.90
2017-09-20T05:17:10.329Z,17.65
2017-09-20T05:17:44.848Z,21.42
2017-09-20T05:18:19.349Z,19.08
2017-09-20T05:18:53.849Z,20.02
2017-09-20T05:19:27.581Z,21.08
2017-09-20T05:20:01.385Z,19.42
2017-09-20T05:20:35.478Z,26.67
2017-09-20T05:21:09.218Z,20.75
2017-09-20T05:21:42.978Z,17.70
2017-09-20T05:22:16.718Z,36.08
2017-09-20T05:22:51.204Z,20.75
2017-09-20T05:23:25.714Z,38.13
2017-09-20T05:23:59.444Z,27.77
2017-09-20T05:24:33.182Z,24.77
2017-09-20T05:25:06.894Z,27.48
2017-09-20T05:25:41.777Z,39.42
2017-09-20T05:26:15.505Z,26.25
2017-09-20T05:26:50.001Z,21.00
2017-09-20T05:27:23.736Z,20.75
2017-09-20T05:27:57.452Z,25.83
2017-09-20T05:28:31.184Z,19.37
2017-09-20T05:29:05.725Z,17.20
2017-09-20T05:29:39.315Z,20.65
2017-09-20T05:30:12.875Z,32.60
2017-09-20T05:30:47.512Z,22.83
2017-09-20T05:31:21.062Z,19.15
2017-09-20T05:31:54.618Z,20.08
2017-09-20T05:32:28.151Z,18.15
2017-09-20T05:33:02.455Z,18.70
2017-09-20T05:33:36.766Z,20.62
2017-09-20T05:34:11.390Z,20.77
2017-09-20T05:34:45.131Z,15.90
2017-09-20T05:35:18.874Z,17.25
2017-09-20T05:35:53.697Z,29.25
2017-09-20T05:36:27.454Z,21.15
2017-09-20T05:37:01.961Z,19.52
2017-09-20T05:37:36.331Z,22.17
2017-09-20T05:38:10.060Z,21.25
2017-09-20T05:38:44.553Z,21.50
2017-09-20T05:39:19.788Z,19.23
2017-09-20T05:39:54.306Z,15.45
2017-09-20T05:40:28.797Z,21.75
2017-09-20T05:41:02.850Z,23.33
2017-09-20T05:41:36.602Z,22.00
2017-09-20T05:42:11.854Z,24.15
2017-09-20T05:42:46.326Z,26.77
2017-09-20T05:43:20.055Z,21.80
2017-09-20T05:43:53.807Z,16.55
2017-09-20T05:44:27.554Z,16.15
2017-09-20T05:45:01.319Z,17.25
2017-09-20T05:45:35.821Z,20.37
2017-09-20T05:46:10.754Z,15.63
2017-09-20T05:46:44.539Z,19.33
2017-09-20T05:47:19.028Z,21.37
2017-09-20T05:47:53.533Z,17.15
2017-09-20T05:48:28.014Z,18.75
2017-09-20T05:49:01.733Z,24.20
2017-09-20T05:49:36.241Z,20.10
2017-09-20T05:50:09.968Z,19.62
2017-09-20T05:50:43.695Z,16.80
2017-09-20T05:51:17.435Z,20.98
2017-09-20T05:51:51.920Z,18.20
2017-09-20T05:52:25.661Z,20.50
2017-09-20T05:52:59.377Z,18.25
2017-09-20T05:53:33.115Z,20.85
2017-09-20T05:54:07.601Z,19.73
2017-09-20T05:54:41.314Z,16.95
2017-09-20T05:55:15.799Z,20.50
2017-09-20T05:55:49.511Z,23.38
2017-09-20T05:56:24.357Z,18.77
2017-09-20T05:56:58.092Z,21.80
2017-09-20T05:57:31.802Z,24.67
2017-09-20T05:58:06.284Z,19.10
2017-09-20T05:58:40.001Z,19.00
2017-09-20T05:59:14.493Z,19.27
2017-09-20T05:59:48.235Z,16.77
2017-09-20T06:00:21.959Z,26.65
2017-09-20T06:00:55.694Z,25.33
2017-09-20T06:01:30.525Z,17.90
2017-09-20T06:02:04.268Z,18.17
2017-09-20T06:02:38.096Z,17.83
2017-09-20T06:03:12.591Z,16.42
2017-09-20T06:03:47.085Z,18.92
2017-09-20T06:04:20.831Z,22.17
2017-09-20T06:04:54.548Z,17.85
2017-09-20T06:05:28.285Z,22.23
2017-09-20T06:06:02.769Z,16.60
2017-09-20T06:06:37.639Z,20.42
2017-09-20T06:07:11.012Z,19.23
2017-09-20T06:07:44.739Z,17.80
2017-09-20T06:08:18.448Z,19.15
2017-09-20T06:08:52.199Z,18.12
2017-09-20T06:09:25.925Z,19.00
2017-09-20T06:09:59.466Z,18.23
2017-09-20T06:10:33.193Z,17.98
2017-09-20T06:11:06.960Z,17.20
2017-09-20T06:11:40.987Z,21.77
2017-09-20T06:12:14.732Z,21.50
2017-09-20T06:12:48.453Z,16.15
2017-09-20T06:13:22.216Z,19.80
2017-09-20T06:13:55.951Z,16.55
2017-09-20T06:14:29.696Z,14.40
2017-09-20T06:15:03.439Z,17.77
2017-09-20T06:15:37.157Z,21.83
2017-09-20T06:16:11.654Z,18.35
2017-09-20T06:16:46.057Z,18.30
2017-09-20T06:17:19.784Z,15.93
2017-09-20T06:17:53.529Z,17.42
2017-09-20T06:18:27.262Z,23.73
2017-09-20T06:19:01.010Z,20.98
2017-09-20T06:19:34.772Z,15.93
2017-09-20T06:20:08.509Z,18.08
2017-09-20T06:20:42.230Z,17.87
2017-09-20T06:21:15.953Z,16.75
2017-09-20T06:21:49.990Z,16.92
2017-09-20T06:22:24.485Z,16.30
2017-09-20T06:22:58.221Z,17.27
2017-09-20T06:23:31.952Z,16.73
2017-09-20T06:24:05.694Z,16.20
2017-09-20T06:24:39.423Z,13.85
2017-09-20T06:25:13.149Z,18.90
2017-09-20T06:25:47.660Z,19.42
2017-09-20T06:26:22.153Z,17.02
2017-09-20T06:26:56.969Z,20.37
2017-09-20T06:27:32.337Z,17.37
2017-09-20T06:28:05.521Z,19.70
2017-09-20T06:28:39.083Z,42.70
2017-09-20T06:29:13.611Z,42.92
2017-09-20T06:29:47.355Z,17.15
2017-09-20T06:30:21.088Z,13.73
2017-09-20T06:30:55.597Z,16.25
2017-09-20T06:31:30.098Z,18.60
2017-09-20T06:32:04.134Z,24.23
2017-09-20T06:32:37.870Z,14.02
2017-09-20T06:33:11.602Z,15.52
2017-09-20T06:33:45.056Z,17.62
2017-09-20T06:34:18.788Z,12.55
2017-09-20T06:34:52.527Z,16.77
2017-09-20T06:35:26.257Z,14.77
2017-09-20T06:36:00.000Z,17.20
2017-09-20T06:36:33.744Z,15.82
2017-09-20T06:37:07.841Z,14.35
2017-09-20T06:37:41.572Z,11.68
2017-09-20T06:38:15.346Z,17.15
2017-09-20T06:38:49.113Z,14.27
2017-09-20T06:39:22.845Z,15.57
2017-09-20T06:39:56.573Z,13.43
2017-09-20T06:40:31.084Z,14.20
2017-09-20T06:41:05.573Z,14.75
2017-09-20T06:41:39.314Z,14.23
2017-09-20T06:42:13.402Z,18.60
2017-09-20T06:42:47.124Z,17.12
2017-09-20T06:43:20.976Z,15.05
2017-09-20T06:43:55.459Z,16.58
2017-09-20T06:44:29.194Z,18.02
2017-09-20T06:45:02.927Z,15.27
2017-09-20T06:45:36.669Z,15.07
2017-09-20T06:46:10.393Z,13.18
2017-09-20T06:46:44.133Z,16.70
2017-09-20T06:47:19.026Z,13.88
2017-09-20T06:47:52.766Z,14.13
2017-09-20T06:48:26.153Z,14.00
2017-09-20T06:49:00.123Z,14.35
2017-09-20T06:49:34.421Z,18.33
2017-09-20T06:50:08.719Z,18.83
2017-09-20T06:50:42.278Z,12.55
2017-09-20T06:51:15.994Z,15.23
2017-09-20T06:51:49.718Z,17.62
2017-09-20T06:52:23.816Z,13.90
2017-09-20T06:52:57.546Z,11.75
2017-09-20T06:53:31.287Z,16.40
2017-09-20T06:54:05.008Z,16.10
2017-09-20T06:54:38.750Z,14.93
2017-09-20T06:55:13.274Z,17.35
2017-09-20T06:55:47.761Z,15.27
2017-09-20T06:56:21.573Z,15.35
2017-09-20T06:56:56.070Z,14.63
2017-09-20T06:57:30.240Z,14.02
2017-09-20T06:58:03.968Z,13.50
2017-09-20T06:58:38.281Z,17.10
2017-09-20T06:59:12.765Z,14.25
2017-09-20T06:59:46.504Z,17.52
2017-09-20T07:00:20.242Z,17.98
2017-09-20T07:00:53.958Z,12.77
2017-09-20T07:01:28.450Z,17.67
2017-09-20T07:02:02.177Z,13.32
2017-09-20T07:02:36.279Z,12.43
2017-09-20T07:03:09.996Z,16.67
2017-09-20T07:03:43.720Z,14.98
2017-09-20T07:04:17.462Z,16.67
2017-09-20T07:04:51.185Z,16.15
2017-09-20T07:05:24.911Z,15.70
2017-09-20T07:05:59.391Z,13.15
2017-09-20T07:06:33.107Z,10.23
2017-09-20T07:07:07.599Z,14.15
2017-09-20T07:07:41.361Z,18.98
2017-09-20T07:08:15.086Z,16.05
2017-09-20T07:08:48.812Z,17.25
2017-09-20T07:09:22.528Z,14.80
2017-09-20T07:09:56.237Z,14.02
2017-09-20T07:10:29.945Z,11.93
2017-09-20T07:11:03.672Z,14.10
2017-09-20T07:11:37.402Z,10.68
2017-09-20T07:12:11.138Z,13.60
2017-09-20T07:12:45.957Z,16.50
2017-09-20T07:13:20.443Z,13.00
2017-09-20T07:13:54.929Z,13.65
2017-09-20T07:14:28.674Z,10.73
2017-09-20T07:15:03.170Z,15.32
2017-09-20T07:15:37.654Z,12.52
2017-09-20T07:16:11.369Z,12.73
2017-09-20T07:16:45.881Z,12.85
2017-09-20T07:17:20.355Z,13.13
2017-09-20T07:17:54.345Z,13.98
2017-09-20T07:18:28.068Z,11.48